Cairo, Oregon
Current Conditions -  °F | °C
As of 8:19 AM on Saturday 20 Dec 2014 (Local Time) from KONO Reporting Station
Light Rain Light Rain  
Wind Chill: 37°   Ceiling: 3600
Heat Index: 37°   Visibility: 4mi
Dew Point: 36°   Wind: 0mph
Humidity: 96%   Direction: NA
Pressure: 30.01"   Gusts: NA
Location:  44.0817°N, 117.014°W
Report Text: KONO 201519Z AUTO 00000KT 4SM -RA BR SCT003 SCT010 OVC036 03/02 A3001 RMK AO2 P0001 T00280022
Loading
Personal Weather Stations






























Interactive Weather Map New forecast layout! Learn more

10-Day Weather Forecast

Advertisements
Track Severe Weather on mobile